sensor_id;sensor_type;location;lat;lon;timestamp;pressure;altitude;pressure_sealevel;temperature;humidity
78210;BME280;67485;48.816;9.930;2024-01-10T15:44:39;97682.22;;;-1.58;73.86
78210;BME280;67485;48.816;9.930;2024-01-10T15:47:06;97683.56;;;-1.69;74.40
78210;BME280;67485;48.816;9.930;2024-01-10T15:49:32;97687.78;;;-1.71;74.27
78210;BME280;67485;48.816;9.930;2024-01-10T15:54:02;97685.53;;;-1.86;75.11
78210;BME280;67485;48.816;9.930;2024-01-10T15:56:28;97694.69;;;-1.93;75.54
78210;BME280;67485;48.816;9.930;2024-01-10T15:58:53;97692.22;;;-1.91;75.75
78210;BME280;67485;48.816;9.930;2024-01-10T16:01:19;97689.41;;;-1.98;75.88
78210;BME280;67485;48.816;9.930;2024-01-10T16:03:45;97691.00;;;-2.01;75.94
78210;BME280;67485;48.816;9.930;2024-01-10T16:06:11;97690.09;;;-2.02;76.08
78210;BME280;67485;48.816;9.930;2024-01-10T16:08:36;97696.00;;;-2.04;75.78
78210;BME280;67485;48.816;9.930;2024-01-10T16:11:02;97697.75;;;-2.03;76.03
78210;BME280;67485;48.816;9.930;2024-01-10T16:13:28;97704.66;;;-2.02;76.02
78210;BME280;67485;48.816;9.930;2024-01-10T16:15:54;97711.41;;;-2.04;75.53
78210;BME280;67485;48.816;9.930;2024-01-10T16:18:21;97709.78;;;-2.02;75.61
78210;BME280;67485;48.816;9.930;2024-01-10T16:20:47;97715.03;;;-1.99;75.45
78210;BME280;67485;48.816;9.930;2024-01-10T16:23:13;97715.16;;;-1.96;75.45
78210;BME280;67485;48.816;9.930;2024-01-10T16:25:39;97721.91;;;-1.98;75.82
78210;BME280;67485;48.816;9.930;2024-01-10T16:28:05;97711.53;;;-2.01;76.20
78210;BME280;67485;48.816;9.930;2024-01-10T16:30:30;97708.03;;;-2.03;75.41
78210;BME280;67485;48.816;9.930;2024-01-10T16:32:56;97713.00;;;-2.08;75.72
78210;BME280;67485;48.816;9.930;2024-01-10T16:35:22;97709.78;;;-2.02;75.68
78210;BME280;67485;48.816;9.930;2024-01-10T16:37:47;97712.22;;;-2.05;76.03
78210;BME280;67485;48.816;9.930;2024-01-10T16:40:14;97712.72;;;-2.16;75.84
78210;BME280;67485;48.816;9.930;2024-01-10T16:42:42;97710.84;;;-2.20;75.83
78210;BME280;67485;48.816;9.930;2024-01-10T16:45:08;97731.41;;;-2.20;75.95
78210;BME280;67485;48.816;9.930;2024-01-10T16:47:33;97722.66;;;-2.25;76.24
78210;BME280;67485;48.816;9.930;2024-01-10T16:49:59;97725.22;;;-2.25;76.06
78210;BME280;67485;48.816;9.930;2024-01-10T16:52:25;97722.41;;;-2.31;75.92
78210;BME280;67485;48.816;9.930;2024-01-10T16:54:50;97724.22;;;-2.29;76.67
78210;BME280;67485;48.816;9.930;2024-01-10T16:57:16;97727.66;;;-2.28;76.62
78210;BME280;67485;48.816;9.930;2024-01-10T16:59:42;97731.06;;;-2.29;76.03
78210;BME280;67485;48.816;9.930;2024-01-10T17:02:07;97732.31;;;-2.40;76.95
78210;BME280;67485;48.816;9.930;2024-01-10T17:04:33;97730.44;;;-2.45;76.66
78210;BME280;67485;48.816;9.930;2024-01-10T17:06:59;97731.72;;;-2.56;76.95
78210;BME280;67485;48.816;9.930;2024-01-10T17:09:24;97730.56;;;-2.64;78.17
78210;BME280;67485;48.816;9.930;2024-01-10T17:11:50;97729.34;;;-2.72;78.73
78210;BME280;67485;48.816;9.930;2024-01-10T17:14:18;97729.34;;;-2.72;78.72
78210;BME280;67485;48.816;9.930;2024-01-10T17:16:44;97735.84;;;-2.81;78.99
78210;BME280;67485;48.816;9.930;2024-01-10T17:19:11;97732.38;;;-2.83;79.31
78210;BME280;67485;48.816;9.930;2024-01-10T17:21:39;97733.25;;;-2.82;78.80
78210;BME280;67485;48.816;9.930;2024-01-10T17:24:05;97735.19;;;-2.77;78.59
78210;BME280;67485;48.816;9.930;2024-01-10T17:26:31;97730.47;;;-2.87;78.75
78210;BME280;67485;48.816;9.930;2024-01-10T17:28:57;97731.81;;;-2.97;78.75
78210;BME280;67485;48.816;9.930;2024-01-10T17:31:23;97738.66;;;-2.96;78.94
78210;BME280;67485;48.816;9.930;2024-01-10T17:33:49;97732.72;;;-2.95;79.33
78210;BME280;67485;48.816;9.930;2024-01-10T17:36:14;97740.88;;;-3.05;79.90
78210;BME280;67485;48.816;9.930;2024-01-10T17:38:40;97733.88;;;-3.09;79.12
78210;BME280;67485;48.816;9.930;2024-01-10T17:41:06;97723.53;;;-3.11;79.27
78210;BME280;67485;48.816;9.930;2024-01-10T17:43:31;97730.34;;;-3.11;78.92
78210;BME280;67485;48.816;9.930;2024-01-10T17:45:57;97729.75;;;-3.05;78.63
78210;BME280;67485;48.816;9.930;2024-01-10T17:48:23;97736.59;;;-3.04;79.22
78210;BME280;67485;48.816;9.930;2024-01-10T17:50:48;97726.34;;;-3.04;78.96
78210;BME280;67485;48.816;9.930;2024-01-10T17:53:14;97738.09;;;-3.10;79.69
78210;BME280;67485;48.816;9.930;2024-01-10T17:55:40;97738.09;;;-3.10;79.48
78210;BME280;67485;48.816;9.930;2024-01-10T17:58:05;97742.69;;;-3.02;79.11
78210;BME280;67485;48.816;9.930;2024-01-10T18:00:31;97747.34;;;-3.13;79.00
78210;BME280;67485;48.816;9.930;2024-01-10T18:02:57;97752.97;;;-3.22;80.12
78210;BME280;67485;48.816;9.930;2024-01-10T18:05:23;97754.84;;;-3.39;80.82
78210;BME280;67485;48.816;9.930;2024-01-10T18:07:49;97750.03;;;-3.51;81.39
78210;BME280;67485;48.816;9.930;2024-01-10T18:10:19;97755.78;;;-3.56;81.62
78210;BME280;67485;48.816;9.930;2024-01-10T18:12:45;97757.44;;;-3.57;82.22
78210;BME280;67485;48.816;9.930;2024-01-10T18:15:11;97754.50;;;-3.66;82.63
78210;BME280;67485;48.816;9.930;2024-01-10T18:17:36;97748.94;;;-3.76;83.38
78210;BME280;67485;48.816;9.930;2024-01-10T18:20:02;97748.94;;;-3.76;83.46
78210;BME280;67485;48.816;9.930;2024-01-10T18:22:28;97762.31;;;-3.83;83.74
78210;BME280;67485;48.816;9.930;2024-01-10T18:24:54;97754.63;;;-3.83;83.68
78210;BME280;67485;48.816;9.930;2024-01-10T18:27:20;97758.81;;;-3.85;84.10
78210;BME280;67485;48.816;9.930;2024-01-10T18:29:45;97766.88;;;-3.95;83.66
78210;BME280;67485;48.816;9.930;2024-01-10T18:32:11;97770.94;;;-4.00;84.02
78210;BME280;67485;48.816;9.930;2024-01-10T18:34:37;97768.88;;;-4.08;84.67
78210;BME280;67485;48.816;9.930;2024-01-10T18:37:03;97772.91;;;-4.13;84.87
78210;BME280;67485;48.816;9.930;2024-01-10T18:39:28;97769.34;;;-4.16;84.93
78210;BME280;67485;48.816;9.930;2024-01-10T18:41:54;97763.88;;;-4.24;86.03
78210;BME280;67485;48.816;9.930;2024-01-10T18:44:20;97765.19;;;-4.32;86.06
78210;BME280;67485;48.816;9.930;2024-01-10T18:46:46;97758.84;;;-4.41;86.37
78210;BME280;67485;48.816;9.930;2024-01-10T18:49:11;97757.28;;;-4.37;86.91
78210;BME280;67485;48.816;9.930;2024-01-10T18:51:37;97763.41;;;-4.33;87.18
78210;BME280;67485;48.816;9.930;2024-01-10T18:54:03;97769.13;;;-4.21;86.88
78210;BME280;67485;48.816;9.930;2024-01-10T18:56:30;97778.16;;;-4.10;85.77
78210;BME280;67485;48.816;9.930;2024-01-10T18:58:55;97771.97;;;-4.15;85.80
78210;BME280;67485;48.816;9.930;2024-01-10T19:01:21;97772.34;;;-4.25;85.69
78210;BME280;67485;48.816;9.930;2024-01-10T19:03:47;97779.06;;;-4.27;86.31
78210;BME280;67485;48.816;9.930;2024-01-10T19:06:12;97777.31;;;-4.28;86.62
78210;BME280;67485;48.816;9.930;2024-01-10T19:08:38;97771.09;;;-4.33;86.90
78210;BME280;67485;48.816;9.930;2024-01-10T19:11:05;97776.09;;;-4.36;87.71
78210;BME280;67485;48.816;9.930;2024-01-10T19:13:33;97770.28;;;-4.32;87.25
78210;BME280;67485;48.816;9.930;2024-01-10T19:16:08;97774.38;;;-4.18;87.78
78210;BME280;67485;48.816;9.930;2024-01-10T19:18:35;97767.94;;;-4.10;87.65
78210;BME280;67485;48.816;9.930;2024-01-10T19:21:01;97769.97;;;-4.02;87.37
78210;BME280;67485;48.816;9.930;2024-01-10T19:23:30;97768.22;;;-4.03;87.78
78210;BME280;67485;48.816;9.930;2024-01-10T19:25:56;97765.13;;;-3.96;88.14
78210;BME280;67485;48.816;9.930;2024-01-10T19:28:25;97768.38;;;-4.00;88.33
78210;BME280;67485;48.816;9.930;2024-01-10T19:30:51;97765.72;;;-4.02;88.46
78210;BME280;67485;48.816;9.930;2024-01-10T19:33:17;97769.84;;;-4.05;88.80
78210;BME280;67485;48.816;9.930;2024-01-10T19:35:42;97764.84;;;-4.02;88.98
78210;BME280;67485;48.816;9.930;2024-01-10T19:38:08;97761.50;;;-4.19;88.31
78210;BME280;67485;48.816;9.930;2024-01-10T19:40:34;97762.22;;;-4.22;88.33
78210;BME280;67485;48.816;9.930;2024-01-10T19:43:03;97762.97;;;-4.25;88.13
78210;BME280;67485;48.816;9.930;2024-01-10T19:45:29;97770.59;;;-4.26;88.09
78210;BME280;67485;48.816;9.930;2024-01-10T19:47:54;97769.19;;;-4.19;87.28
78210;BME280;67485;48.816;9.930;2024-01-10T19:50:20;97771.16;;;-4.14;86.70
78210;BME280;67485;48.816;9.930;2024-01-10T19:52:47;97774.81;;;-4.09;86.41
78210;BME280;67485;48.816;9.930;2024-01-10T19:55:13;97768.72;;;-4.11;86.35
78210;BME280;67485;48.816;9.930;2024-01-10T19:57:39;97764.28;;;-4.15;86.89
78210;BME280;67485;48.816;9.930;2024-01-10T20:00:05;97771.03;;;-4.17;86.92
78210;BME280;67485;48.816;9.930;2024-01-10T20:02:32;97772.63;;;-4.19;87.39
78210;BME280;67485;48.816;9.930;2024-01-10T20:05:00;97778.72;;;-4.17;86.81
78210;BME280;67485;48.816;9.930;2024-01-10T20:07:26;97771.72;;;-4.19;86.51
78210;BME280;67485;48.816;9.930;2024-01-10T20:09:51;97764.56;;;-4.09;86.81
78210;BME280;67485;48.816;9.930;2024-01-10T20:12:17;97767.50;;;-4.19;87.57
78210;BME280;67485;48.816;9.930;2024-01-10T20:14:43;97769.28;;;-4.18;87.45
78210;BME280;67485;48.816;9.930;2024-01-10T20:17:09;97768.72;;;-4.11;86.47
78210;BME280;67485;48.816;9.930;2024-01-10T20:19:34;97762.97;;;-4.07;86.01
78210;BME280;67485;48.816;9.930;2024-01-10T20:22:00;97765.59;;;-4.05;85.82
78210;BME280;67485;48.816;9.930;2024-01-10T20:24:26;97770.41;;;-4.11;85.39
78210;BME280;67485;48.816;9.930;2024-01-10T20:26:52;97771.72;;;-4.19;86.03
78210;BME280;67485;48.816;9.930;2024-01-10T20:29:17;97762.69;;;-4.31;85.72
78210;BME280;67485;48.816;9.930;2024-01-10T20:31:43;97765.34;;;-4.29;86.95
78210;BME280;67485;48.816;9.930;2024-01-10T20:34:09;97773.53;;;-4.36;86.81
78210;BME280;67485;48.816;9.930;2024-01-10T20:36:34;97766.94;;;-4.31;87.09
78210;BME280;67485;48.816;9.930;2024-01-10T20:39:02;97758.41;;;-4.32;86.44
78210;BME280;67485;48.816;9.930;2024-01-10T20:41:28;97752.38;;;-4.32;86.27
78210;BME280;67485;48.816;9.930;2024-01-10T20:43:54;97764.44;;;-4.30;86.72
78210;BME280;67485;48.816;9.930;2024-01-10T20:46:20;97758.47;;;-4.30;87.25
78210;BME280;67485;48.816;9.930;2024-01-10T20:48:46;97763.81;;;-4.26;86.16
78210;BME280;67485;48.816;9.930;2024-01-10T20:51:11;97763.66;;;-4.29;86.18
78210;BME280;67485;48.816;9.930;2024-01-10T20:53:37;97761.53;;;-4.37;86.45
78210;BME280;67485;48.816;9.930;2024-01-10T20:56:03;97757.88;;;-4.43;86.57
78210;BME280;67485;48.816;9.930;2024-01-10T20:58:29;97765.09;;;-4.52;86.34
78210;BME280;67485;48.816;9.930;2024-01-10T21:00:55;97769.13;;;-4.57;86.96
78210;BME280;67485;48.816;9.930;2024-01-10T21:03:21;97768.25;;;-4.58;87.16
78210;BME280;67485;48.816;9.930;2024-01-10T21:05:46;97770.22;;;-4.52;87.35
78210;BME280;67485;48.816;9.930;2024-01-10T21:08:13;97779.22;;;-4.60;88.13
78210;BME280;67485;48.816;9.930;2024-01-10T21:10:39;97776.22;;;-4.69;88.51
78210;BME280;67485;48.816;9.930;2024-01-10T21:13:05;97778.06;;;-4.67;89.14
78210;BME280;67485;48.816;9.930;2024-01-10T21:15:30;97778.13;;;-4.65;89.54
78210;BME280;67485;48.816;9.930;2024-01-10T21:17:58;97776.22;;;-4.69;89.61
78210;BME280;67485;48.816;9.930;2024-01-10T21:20:24;97777.91;;;-4.70;89.20
78210;BME280;67485;48.816;9.930;2024-01-10T21:22:49;97772.06;;;-4.67;89.74
78210;BME280;67485;48.816;9.930;2024-01-10T21:25:17;97773.38;;;-4.76;89.78
78210;BME280;67485;48.816;9.930;2024-01-10T21:27:43;97767.88;;;-4.83;89.56
78210;BME280;67485;48.816;9.930;2024-01-10T21:30:09;97770.28;;;-4.86;90.07
78210;BME280;67485;48.816;9.930;2024-01-10T21:32:34;97766.22;;;-4.83;89.63
78210;BME280;67485;48.816;9.930;2024-01-10T21:35:00;97762.13;;;-4.79;89.50
78210;BME280;67485;48.816;9.930;2024-01-10T21:37:26;97758.59;;;-4.81;89.37
78210;BME280;67485;48.816;9.930;2024-01-10T21:39:52;97760.59;;;-4.76;89.04
78210;BME280;67485;48.816;9.930;2024-01-10T21:42:17;97754.81;;;-4.72;88.22
78210;BME280;67485;48.816;9.930;2024-01-10T21:44:43;97757.06;;;-4.78;88.01
78210;BME280;67485;48.816;9.930;2024-01-10T21:47:09;97760.38;;;-4.80;88.02
78210;BME280;67485;48.816;9.930;2024-01-10T21:49:35;97764.88;;;-4.75;88.63
78210;BME280;67485;48.816;9.930;2024-01-10T21:52:01;97759.88;;;-4.73;88.18
78210;BME280;67485;48.816;9.930;2024-01-10T21:54:26;97761.53;;;-4.74;88.26
78210;BME280;67485;48.816;9.930;2024-01-10T21:56:52;97768.97;;;-4.78;88.72
78210;BME280;67485;48.816;9.930;2024-01-10T21:59:18;97759.16;;;-4.87;88.96
78210;BME280;67485;48.816;9.930;2024-01-10T22:01:44;97763.28;;;-4.91;89.08
78210;BME280;67485;48.816;9.930;2024-01-10T22:04:10;97765.91;;;-4.89;89.26
78210;BME280;67485;48.816;9.930;2024-01-10T22:06:35;97760.94;;;-4.86;89.08
78210;BME280;67485;48.816;9.930;2024-01-10T22:09:01;97759.47;;;-4.81;88.74
78210;BME280;67485;48.816;9.930;2024-01-10T22:11:27;97771.03;;;-4.89;88.40
78210;BME280;67485;48.816;9.930;2024-01-10T22:13:52;97767.00;;;-5.02;89.21
78210;BME280;67485;48.816;9.930;2024-01-10T22:16:18;97770.56;;;-4.98;89.50
78210;BME280;67485;48.816;9.930;2024-01-10T22:18:44;97762.56;;;-4.88;89.36
78210;BME280;67485;48.816;9.930;2024-01-10T22:21:10;97766.81;;;-4.70;89.10
78210;BME280;67485;48.816;9.930;2024-01-10T22:23:36;97761.25;;;-4.62;88.81
78210;BME280;67485;48.816;9.930;2024-01-10T22:26:02;97752.59;;;-4.46;88.49
78210;BME280;67485;48.816;9.930;2024-01-10T22:28:28;97756.78;;;-4.48;87.87
78210;BME280;67485;48.816;9.930;2024-01-10T22:30:54;97759.63;;;-4.42;86.93
78210;BME280;67485;48.816;9.930;2024-01-10T22:33:21;97755.69;;;-4.53;86.77
78210;BME280;67485;48.816;9.930;2024-01-10T22:35:48;97761.13;;;-4.47;86.69
78210;BME280;67485;48.816;9.930;2024-01-10T22:38:14;97753.94;;;-4.54;86.47
78210;BME280;67485;48.816;9.930;2024-01-10T22:40:39;97756.44;;;-4.56;86.96
78210;BME280;67485;48.816;9.930;2024-01-10T22:43:05;97757.88;;;-4.61;86.40
78210;BME280;67485;48.816;9.930;2024-01-10T22:45:32;97756.56;;;-4.70;86.30
78210;BME280;67485;48.816;9.930;2024-01-10T22:47:57;97756.41;;;-4.74;86.58
78210;BME280;67485;48.816;9.930;2024-01-10T22:50:23;97754.34;;;-4.81;86.36
78210;BME280;67485;48.816;9.930;2024-01-10T22:52:49;97755.19;;;-4.82;86.88
78210;BME280;67485;48.816;9.930;2024-01-10T22:55:15;97761.81;;;-4.85;87.06
78210;BME280;67485;48.816;9.930;2024-01-10T22:57:40;97770.66;;;-4.97;87.69
78210;BME280;67485;48.816;9.930;2024-01-10T23:00:06;97769.63;;;-5.00;88.19
78210;BME280;67485;48.816;9.930;2024-01-10T23:02:39;97770.41;;;-5.01;88.54
78210;BME280;67485;48.816;9.930;2024-01-10T23:05:13;97762.09;;;-4.97;88.14
78210;BME280;67485;48.816;9.930;2024-01-10T23:07:39;97762.38;;;-4.91;88.30
78210;BME280;67485;48.816;9.930;2024-01-10T23:10:05;97767.50;;;-4.91;87.71
78210;BME280;67485;48.816;9.930;2024-01-10T23:12:31;97763.91;;;-4.95;87.83
78210;BME280;67485;48.816;9.930;2024-01-10T23:14:56;97769.13;;;-4.93;88.21
78210;BME280;67485;48.816;9.930;2024-01-10T23:17:22;97767.50;;;-4.91;87.56
78210;BME280;67485;48.816;9.930;2024-01-10T23:19:47;97769.44;;;-5.03;88.21
78210;BME280;67485;48.816;9.930;2024-01-10T23:22:13;97761.66;;;-5.07;87.72
78210;BME280;67485;48.816;9.930;2024-01-10T23:24:39;97765.31;;;-5.01;87.81
78210;BME280;67485;48.816;9.930;2024-01-10T23:27:05;97758.28;;;-5.06;87.86
78210;BME280;67485;48.816;9.930;2024-01-10T23:29:31;97758.28;;;-5.06;87.49
78210;BME280;67485;48.816;9.930;2024-01-10T23:31:56;97762.94;;;-5.15;87.72
78210;BME280;67485;48.816;9.930;2024-01-10T23:34:22;97755.91;;;-5.19;88.00
78210;BME280;67485;48.816;9.930;2024-01-10T23:36:48;97753.59;;;-5.14;88.71
78210;BME280;67485;48.816;9.930;2024-01-10T23:39:13;97751.41;;;-5.07;88.13
78210;BME280;67485;48.816;9.930;2024-01-10T23:41:39;97747.91;;;-5.09;87.75
78210;BME280;67485;48.816;9.930;2024-01-10T23:44:08;97750.22;;;-5.13;87.04
78210;BME280;67485;48.816;9.930;2024-01-10T23:46:33;97752.69;;;-5.15;87.62
78210;BME280;67485;48.816;9.930;2024-01-10T23:48:59;97752.88;;;-5.12;87.58
78210;BME280;67485;48.816;9.930;2024-01-10T23:51:25;97762.78;;;-5.18;87.65
78210;BME280;67485;48.816;9.930;2024-01-10T23:53:50;97756.47;;;-5.25;87.82
78210;BME280;67485;48.816;9.930;2024-01-10T23:56:16;97757.13;;;-5.29;87.93
78210;BME280;67485;48.816;9.930;2024-01-10T23:58:41;97761.19;;;-5.32;87.92
